Time;durP1;ratioP1;P1;durP2;ratioP2;P2;SDS_P1;SDS_P2;PMS_P1;PMS_P2;Temp;Humidity;BMP_temperature;BMP_pressure;BME280_temperature;BME280_humidity;BME280_pressure;Samples;Min_cycle;Max_cycle;Signal;HPM_P1;HPM_P2
2022/07/28 00:01:51;;;;;;;2.85;1.23;;;17.90;99.90;;;;;;5089839;28;20028;-72
2022/07/28 00:04:18;;;;;;;2.72;1.30;;;17.80;99.90;;;;;;5086835;28;20044;-72
2022/07/28 00:06:44;;;;;;;5.07;1.45;;;17.90;99.90;;;;;;5088236;28;20043;-72
2022/07/28 00:09:09;;;;;;;4.03;1.30;;;17.80;99.90;;;;;;5083678;28;20499;-72
2022/07/28 00:11:35;;;;;;;4.97;1.38;;;17.80;99.90;;;;;;5087820;28;20098;-72
2022/07/28 00:14:01;;;;;;;3.38;1.50;;;17.80;99.90;;;;;;5088196;28;20453;-73
2022/07/28 00:16:26;;;;;;;4.10;1.60;;;17.90;99.90;;;;;;5086398;28;20104;-72
2022/07/28 00:18:52;;;;;;;6.07;1.63;;;17.80;99.90;;;;;;5085577;28;20051;-71
2022/07/28 00:21:18;;;;;;;2.65;1.30;;;17.80;99.90;;;;;;5086067;28;20031;-72
2022/07/28 00:23:43;;;;;;;3.28;1.30;;;17.80;99.90;;;;;;5087729;28;20024;-73
2022/07/28 00:26:11;;;;;;;3.33;1.50;;;17.70;99.90;;;;;;5087289;28;20013;-71
2022/07/28 00:28:37;;;;;;;2.90;1.60;;;17.80;99.90;;;;;;5085880;28;20072;-71
2022/07/28 00:31:04;;;;;;;5.30;1.67;;;17.80;99.90;;;;;;5085412;28;20033;-72
2022/07/28 00:33:30;;;;;;;4.95;1.50;;;17.80;99.90;;;;;;5087985;28;20031;-73
2022/07/28 00:35:55;;;;;;;5.10;1.80;;;17.80;99.90;;;;;;5087310;28;20024;-72
2022/07/28 00:38:21;;;;;;;3.83;1.80;;;17.80;99.90;;;;;;5079469;28;20523;-72
2022/07/28 00:43:31;;;;;;;5.05;1.60;;;17.80;99.90;;;;;;5087311;28;20074;-72
2022/07/28 00:45:57;;;;;;;3.97;1.55;;;17.80;99.90;;;;;;5091274;28;20056;-72
2022/07/28 00:48:22;;;;;;;2.63;1.40;;;17.70;99.90;;;;;;5085168;28;20062;-72
2022/07/28 00:50:48;;;;;;;3.65;1.13;;;17.80;99.90;;;;;;5087827;28;20050;-73
2022/07/28 00:53:14;;;;;;;2.25;1.20;;;17.80;99.90;;;;;;5088005;28;20366;-71
2022/07/28 00:55:40;;;;;;;3.60;1.58;;;17.80;99.90;;;;;;5087856;28;20124;-73
2022/07/28 00:58:06;;;;;;;3.60;1.60;;;17.70;99.90;;;;;;5088073;28;20097;-72
2022/07/28 01:00:32;;;;;;;3.95;1.33;;;17.70;99.90;;;;;;5089704;28;20461;-72
2022/07/28 01:02:58;;;;;;;3.13;1.60;;;17.70;99.90;;;;;;5087455;28;20049;-70
2022/07/28 01:05:32;;;;;;;2.88;1.50;;;17.70;99.90;;;;;;5085654;28;20103;-71
2022/07/28 01:08:07;;;;;;;6.35;1.60;;;17.70;99.90;;;;;;5091392;28;20056;-72
2022/07/28 01:11:17;;;;;;;5.00;1.33;;;17.60;99.90;;;;;;5087279;28;20070;-71
2022/07/28 01:13:53;;;;;;;6.18;1.50;;;17.60;99.90;;;;;;5008149;28;20034;-72
2022/07/28 01:16:20;;;;;;;2.22;1.38;;;17.60;99.90;;;;;;4995083;28;20649;-73
2022/07/28 01:19:09;;;;;;;7.40;1.50;;;17.60;99.90;;;;;;5051870;28;20041;-72
2022/07/28 01:21:39;;;;;;;3.83;1.50;;;17.50;99.90;;;;;;5087016;28;20025;-72
2022/07/28 01:24:16;;;;;;;4.50;1.40;;;17.50;99.90;;;;;;5079491;28;20107;-73
2022/07/28 01:26:48;;;;;;;4.57;1.63;;;17.50;99.90;;;;;;5082797;28;20039;-72
2022/07/28 01:29:19;;;;;;;4.20;1.35;;;17.50;99.90;;;;;;5086228;28;20395;-72
2022/07/28 01:32:02;;;;;;;5.63;1.42;;;17.40;99.90;;;;;;5085434;28;20477;-72
2022/07/28 01:34:40;;;;;;;;;;;17.40;99.90;;;;;;5085186;28;20020;-72
2022/07/28 01:37:16;;;;;;;3.95;1.40;;;17.40;99.90;;;;;;5086518;28;19923;-72
2022/07/28 01:39:43;;;;;;;3.35;1.20;;;17.40;99.90;;;;;;5089594;28;20440;-72
2022/07/28 01:42:12;;;;;;;3.83;1.60;;;17.40;99.90;;;;;;5083284;28;20012;-72
2022/07/28 01:44:42;;;;;;;5.55;1.70;;;17.30;99.90;;;;;;5084568;28;20035;-72
2022/07/28 01:47:09;;;;;;;2.03;1.10;;;17.30;99.90;;;;;;5080290;28;20028;-72
2022/07/28 01:49:36;;;;;;;6.97;1.55;;;17.30;99.90;;;;;;5093746;28;20035;-72
2022/07/28 01:52:05;;;;;;;5.85;1.60;;;17.20;99.90;;;;;;5082873;28;20024;-72
2022/07/28 01:54:33;;;;;;;4.32;1.30;;;17.30;99.90;;;;;;5087119;28;20040;-71
2022/07/28 01:57:00;;;;;;;6.90;1.40;;;17.20;99.90;;;;;;5084762;28;20588;-72
2022/07/28 01:59:29;;;;;;;3.38;1.75;;;17.20;99.90;;;;;;5090048;28;20439;-72
2022/07/28 02:01:57;;;;;;;4.20;1.65;;;17.10;99.90;;;;;;5087328;28;20028;-72
2022/07/28 02:04:26;;;;;;;6.15;1.70;;;17.10;99.90;;;;;;5089687;28;20468;-73
2022/07/28 02:06:54;;;;;;;2.88;1.50;;;17.10;99.90;;;;;;5085325;28;20122;-71
2022/07/28 02:09:21;;;;;;;2.05;1.45;;;17.00;99.90;;;;;;5086381;28;20074;-72
2022/07/28 02:11:52;;;;;;;6.30;1.50;;;17.00;99.90;;;;;;5087900;28;20040;-72
2022/07/28 02:14:26;;;;;;;4.55;1.60;;;17.10;99.90;;;;;;5081478;28;20032;-72
2022/07/28 02:17:00;;;;;;;3.67;1.70;;;17.00;99.90;;;;;;5088845;28;20070;-72
2022/07/28 02:19:28;;;;;;;2.78;1.73;;;17.00;99.90;;;;;;5081989;28;20380;-71
2022/07/28 02:21:55;;;;;;;3.83;1.58;;;17.00;99.90;;;;;;5087866;28;20025;-72
2022/07/28 02:24:26;;;;;;;5.63;1.90;;;16.90;99.90;;;;;;5084682;28;20173;-72
2022/07/28 02:26:59;;;;;;;3.17;1.65;;;16.90;99.90;;;;;;5081209;28;20020;-72
2022/07/28 02:29:27;;;;;;;5.05;1.75;;;16.80;99.90;;;;;;5080069;28;20055;-72
2022/07/28 02:31:58;;;;;;;3.63;1.63;;;16.90;99.90;;;;;;5087014;28;20485;-72
2022/07/28 02:34:26;;;;;;;5.90;1.80;;;16.90;99.90;;;;;;5084925;28;20028;-73
2022/07/28 02:37:01;;;;;;;4.18;1.55;;;17.00;99.90;;;;;;5085315;28;20410;-73
2022/07/28 02:39:35;;;;;;;3.72;1.52;;;16.90;99.90;;;;;;5082877;28;20036;-72
2022/07/28 02:42:05;;;;;;;5.53;1.75;;;16.90;99.90;;;;;;5083565;28;20036;-72
2022/07/28 02:44:38;;;;;;;5.18;1.65;;;16.80;99.90;;;;;;5081165;28;20070;-73
2022/07/28 02:47:07;;;;;;;3.75;1.65;;;16.80;99.90;;;;;;5083867;28;20103;-72
2022/07/28 02:49:35;;;;;;;9.73;1.90;;;16.70;99.90;;;;;;5082733;28;20376;-72
2022/07/28 02:52:03;;;;;;;4.93;1.75;;;16.70;99.90;;;;;;5082857;28;20115;-71
2022/07/28 02:54:31;;;;;;;8.05;1.90;;;16.60;99.90;;;;;;5083045;28;20035;-72
2022/07/28 02:56:58;;;;;;;5.68;1.70;;;16.60;99.90;;;;;;5082773;28;20477;-72
2022/07/28 02:59:26;;;;;;;3.70;1.75;;;16.60;99.90;;;;;;5087767;28;20039;-71
2022/07/28 03:01:52;;;;;;;5.32;2.20;;;16.60;99.90;;;;;;5079701;28;20063;-72
2022/07/28 03:04:55;;;;;;;4.55;1.83;;;16.60;99.90;;;;;;5083482;28;20027;-72
2022/07/28 03:07:05;;;;;;;5.50;2.00;;;16.60;99.90;;;;;;5082599;28;20040;-72
2022/07/28 03:09:40;;;;;;;5.95;1.42;;;16.60;99.90;;;;;;5077892;28;20028;-72
2022/07/28 03:12:07;;;;;;;8.55;1.60;;;16.50;99.90;;;;;;5082865;28;20029;-72
2022/07/28 03:14:33;;;;;;;4.30;1.65;;;16.50;99.90;;;;;;5081959;28;20530;-72
2022/07/28 03:16:59;;;;;;;3.25;1.88;;;16.40;99.90;;;;;;5077763;28;20028;-69
2022/07/28 03:19:24;;;;;;;7.30;2.00;;;16.40;99.90;;;;;;5084794;28;20028;-72
2022/07/28 03:21:52;;;;;;;4.43;1.70;;;16.50;99.90;;;;;;5082009;28;20051;-72
2022/07/28 03:24:23;;;;;;;3.08;1.67;;;16.40;99.90;;;;;;5076614;28;20433;-72
2022/07/28 03:27:13;;;;;;;3.90;1.60;;;16.40;99.90;;;;;;5078959;28;20020;-72
2022/07/28 03:29:41;;;;;;;3.80;1.85;;;16.30;99.90;;;;;;5083545;28;20020;-72
2022/07/28 03:32:08;;;;;;;3.50;1.50;;;16.30;99.90;;;;;;5083827;28;20548;-72
2022/07/28 03:34:34;;;;;;;3.53;1.45;;;16.40;99.90;;;;;;5089583;28;20392;-72
2022/07/28 03:37:05;;;;;;;5.40;1.73;;;16.30;99.90;;;;;;5081220;28;20045;-72
2022/07/28 03:39:36;;;;;;;2.95;1.77;;;16.30;99.90;;;;;;5086596;28;20110;-72
2022/07/28 03:42:03;;;;;;;4.38;1.80;;;16.30;99.90;;;;;;5084802;28;20020;-72
2022/07/28 03:44:29;;;;;;;4.07;2.08;;;16.40;99.90;;;;;;5088185;28;20491;-74
2022/07/28 03:46:55;;;;;;;5.10;1.98;;;16.40;99.90;;;;;;5086179;28;20497;-74
2022/07/28 03:49:21;;;;;;;6.15;1.75;;;16.30;99.90;;;;;;5078909;28;20025;-74
2022/07/28 03:51:47;;;;;;;5.30;1.77;;;16.30;99.90;;;;;;5086552;28;20044;-74
2022/07/28 03:54:12;;;;;;;2.60;1.75;;;16.30;99.90;;;;;;5083804;28;20028;-73
2022/07/28 03:56:38;;;;;;;4.70;2.30;;;16.30;99.90;;;;;;5084760;28;20037;-74
2022/07/28 03:59:04;;;;;;;6.15;2.28;;;16.20;99.90;;;;;;5077131;28;20125;-74
2022/07/28 04:01:30;;;;;;;6.53;2.10;;;16.20;99.90;;;;;;5082910;28;20415;-74
2022/07/28 04:03:55;;;;;;;2.75;1.58;;;16.20;99.90;;;;;;5084169;28;20024;-74
2022/07/28 04:06:21;;;;;;;4.68;2.00;;;16.20;99.90;;;;;;5081120;28;20043;-74
2022/07/28 04:08:46;;;;;;;6.80;1.67;;;16.10;99.90;;;;;;5083734;28;20140;-74
2022/07/28 04:11:12;;;;;;;4.25;2.20;;;16.10;99.90;;;;;;5081447;28;20085;-73
2022/07/28 04:13:38;;;;;;;3.88;2.10;;;16.10;99.90;;;;;;5080673;28;20046;-74
2022/07/28 04:16:05;;;;;;;5.55;1.90;;;16.10;99.90;;;;;;5080331;28;20021;-74
2022/07/28 04:18:31;;;;;;;4.97;2.00;;;16.10;99.90;;;;;;5088237;28;20384;-73
2022/07/28 04:20:57;;;;;;;4.28;1.80;;;16.00;99.90;;;;;;5079363;28;20397;-74
2022/07/28 04:23:24;;;;;;;6.95;2.20;;;16.00;99.90;;;;;;5079733;28;20111;-73
2022/07/28 04:25:49;;;;;;;5.68;2.00;;;16.00;99.90;;;;;;5080378;28;20112;-74
2022/07/28 04:28:15;;;;;;;3.72;2.25;;;16.00;99.90;;;;;;5076716;28;20111;-74
2022/07/28 04:30:41;;;;;;;5.43;1.75;;;15.90;99.90;;;;;;5091468;28;20070;-74
2022/07/28 04:33:07;;;;;;;3.72;1.67;;;15.90;99.90;;;;;;5086137;28;20514;-74
2022/07/28 04:35:33;;;;;;;7.65;1.70;;;15.90;99.90;;;;;;5082163;28;20499;-74
2022/07/28 04:38:00;;;;;;;7.95;2.38;;;15.90;99.90;;;;;;5085457;28;20043;-72
2022/07/28 04:40:26;;;;;;;5.18;1.65;;;15.90;99.90;;;;;;5085028;28;20023;-74
2022/07/28 04:42:53;;;;;;;6.25;2.08;;;15.90;99.90;;;;;;5081807;28;20480;-73
2022/07/28 04:45:19;;;;;;;3.22;1.95;;;15.90;99.90;;;;;;5083096;28;20096;-73
2022/07/28 04:47:44;;;;;;;4.78;2.40;;;15.90;99.90;;;;;;5087937;28;20098;-73
2022/07/28 04:50:14;;;;;;;5.72;2.25;;;15.90;99.90;;;;;;5088324;28;20429;-72
2022/07/28 04:52:40;;;;;;;5.03;2.05;;;15.90;99.90;;;;;;5085995;28;20549;-74
2022/07/28 04:55:07;;;;;;;4.30;2.17;;;15.80;99.90;;;;;;5086763;28;20096;-73
2022/07/28 04:57:32;;;;;;;6.38;2.47;;;15.80;99.90;;;;;;5084099;28;20105;-73
2022/07/28 04:59:59;;;;;;;3.88;1.65;;;15.90;99.90;;;;;;5086775;28;20124;-73
2022/07/28 05:02:26;;;;;;;3.92;1.75;;;15.90;99.90;;;;;;5074257;28;20031;-73
2022/07/28 05:04:52;;;;;;;4.78;2.17;;;16.00;99.90;;;;;;5083899;28;20057;-74
2022/07/28 05:07:18;;;;;;;4.97;1.80;;;16.00;99.90;;;;;;5076525;28;20028;-74
2022/07/28 05:09:44;;;;;;;5.30;2.38;;;16.00;99.90;;;;;;5089145;28;20082;-73
2022/07/28 05:12:10;;;;;;;3.75;2.20;;;16.00;99.90;;;;;;5079284;28;20478;-74
2022/07/28 05:14:35;;;;;;;4.43;2.63;;;16.00;99.90;;;;;;5082158;28;20158;-74
2022/07/28 05:17:02;;;;;;;7.05;2.20;;;16.10;99.90;;;;;;5086516;28;20106;-73
2022/07/28 05:19:27;;;;;;;9.57;2.55;;;16.10;99.90;;;;;;5084965;28;20016;-73
2022/07/28 05:21:53;;;;;;;8.50;2.83;;;16.20;99.90;;;;;;5086133;28;20035;-73
2022/07/28 05:24:19;;;;;;;6.80;2.58;;;16.20;99.90;;;;;;5084964;28;20012;-74
2022/07/28 05:26:44;;;;;;;3.75;2.17;;;16.20;99.90;;;;;;5083617;28;20029;-73
2022/07/28 05:29:10;;;;;;;7.00;2.50;;;16.20;99.90;;;;;;5079579;28;20108;-73
2022/07/28 05:31:36;;;;;;;3.97;2.50;;;16.20;99.90;;;;;;5080158;28;20032;-73
2022/07/28 05:34:02;;;;;;;5.93;2.55;;;16.30;99.90;;;;;;5081889;28;20025;-74
2022/07/28 05:36:27;;;;;;;7.25;2.78;;;16.30;99.90;;;;;;5075131;28;20056;-74
2022/07/28 05:38:53;;;;;;;4.85;2.50;;;16.30;99.90;;;;;;5076044;28;20024;-73
2022/07/28 05:41:19;;;;;;;6.43;3.20;;;16.30;99.90;;;;;;5083691;28;20025;-74
2022/07/28 05:43:44;;;;;;;9.77;2.47;;;16.40;99.90;;;;;;5079997;28;20029;-74
2022/07/28 05:46:10;;;;;;;5.78;2.75;;;16.30;99.90;;;;;;5083051;28;20031;-73
2022/07/28 05:48:36;;;;;;;7.65;2.58;;;16.30;99.90;;;;;;5082867;28;20485;-74
2022/07/28 05:51:01;;;;;;;4.43;2.20;;;16.30;99.90;;;;;;5084282;28;20040;-73
2022/07/28 05:53:27;;;;;;;6.20;2.78;;;16.30;99.90;;;;;;5083922;28;20500;-73
2022/07/28 05:55:52;;;;;;;6.45;2.58;;;16.30;99.90;;;;;;5086319;28;20111;-73
2022/07/28 05:58:22;;;;;;;7.63;3.22;;;16.30;99.90;;;;;;5086957;28;20451;-73
2022/07/28 06:00:48;;;;;;;6.40;2.80;;;16.30;99.90;;;;;;5088252;28;20465;-73
2022/07/28 06:03:14;;;;;;;5.60;2.95;;;16.40;99.90;;;;;;5085556;28;20487;-74
2022/07/28 06:05:40;;;;;;;8.07;2.70;;;16.30;99.90;;;;;;5086054;28;20056;-74
2022/07/28 06:08:05;;;;;;;6.18;2.03;;;16.50;99.90;;;;;;5081953;28;20036;-74
2022/07/28 06:13:17;;;;;;;8.45;2.67;;;16.50;99.90;;;;;;5086094;28;20059;-74
2022/07/28 06:15:46;;;;;;;6.20;2.55;;;16.60;99.90;;;;;;5082998;28;20381;-73
2022/07/28 06:18:12;;;;;;;10.65;2.83;;;16.60;99.90;;;;;;5079539;28;20088;-74
2022/07/28 06:20:37;;;;;;;9.15;2.50;;;16.70;99.90;;;;;;5083335;28;20092;-74
2022/07/28 06:23:04;;;;;;;6.45;2.45;;;16.70;99.90;;;;;;5081691;28;20107;-74
2022/07/28 06:25:30;;;;;;;9.63;2.92;;;16.80;99.90;;;;;;5079927;28;20469;-74
2022/07/28 06:28:03;;;;;;;4.68;2.25;;;16.80;99.90;;;;;;5084045;28;20092;-74
2022/07/28 06:30:30;;;;;;;6.53;2.50;;;16.80;99.90;;;;;;5088401;28;20024;-73
2022/07/28 06:32:56;;;;;;;5.47;2.60;;;16.90;99.90;;;;;;5080771;28;20393;-74
2022/07/28 06:35:23;;;;;;;6.00;2.40;;;17.00;99.90;;;;;;5083860;28;20012;-74
2022/07/28 06:37:50;;;;;;;4.97;2.25;;;17.00;99.90;;;;;;5079831;28;20489;-74
2022/07/28 06:40:17;;;;;;;8.10;2.47;;;17.10;99.90;;;;;;5086082;28;20499;-73
2022/07/28 06:42:44;;;;;;;7.15;2.28;;;17.20;99.90;;;;;;5110570;27;20090;-74
2022/07/28 06:45:11;;;;;;;4.93;2.50;;;17.20;99.90;;;;;;5081408;28;20028;-74
2022/07/28 06:47:37;;;;;;;9.75;2.50;;;17.10;99.90;;;;;;5084933;28;20024;-73
2022/07/28 06:50:04;;;;;;;4.93;3.08;;;17.10;99.90;;;;;;5080850;28;20480;-74
2022/07/28 06:52:30;;;;;;;7.50;2.65;;;17.20;99.90;;;;;;5078842;28;20033;-73
2022/07/28 06:54:56;;;;;;;6.10;2.15;;;17.30;99.90;;;;;;5075932;28;20059;-74
2022/07/28 06:57:22;;;;;;;7.90;2.00;;;17.40;99.90;;;;;;5075776;28;20068;-73
2022/07/28 06:59:48;;;;;;;3.22;2.42;;;17.50;99.90;;;;;;5084787;28;20108;-73
2022/07/28 07:02:15;;;;;;;5.13;1.98;;;17.70;99.90;;;;;;5086760;28;20032;-74
2022/07/28 07:04:41;;;;;;;6.50;1.90;;;17.70;99.90;;;;;;5083312;28;20056;-73
2022/07/28 07:07:07;;;;;;;7.85;2.40;;;17.80;99.90;;;;;;5079825;28;20660;-71
2022/07/28 07:09:34;;;;;;;6.40;2.20;;;17.90;99.90;;;;;;5079453;28;20099;-72
2022/07/28 07:11:59;;;;;;;8.50;2.55;;;18.00;99.90;;;;;;5078719;28;20508;-73
2022/07/28 07:14:25;;;;;;;8.70;2.08;;;18.10;99.90;;;;;;5077194;28;20024;-73
2022/07/28 07:16:52;;;;;;;4.47;2.35;;;18.20;99.90;;;;;;5086075;28;21514;-74
2022/07/28 07:19:19;;;;;;;11.23;2.80;;;18.20;99.90;;;;;;5082463;28;20035;-73
2022/07/28 07:21:46;;;;;;;6.15;2.30;;;18.30;99.90;;;;;;5088090;28;20024;-72
2022/07/28 07:24:12;;;;;;;10.55;3.35;;;18.40;99.90;;;;;;5084280;28;20622;-74
2022/07/28 07:26:37;;;;;;;5.75;2.63;;;18.50;99.90;;;;;;5088862;28;20051;-73
2022/07/28 07:29:04;;;;;;;7.80;2.38;;;18.60;99.90;;;;;;5083480;28;20035;-73
2022/07/28 07:31:32;;;;;;;6.68;2.58;;;18.70;99.90;;;;;;5084798;28;20029;-72
2022/07/28 07:33:58;;;;;;;4.88;2.13;;;18.70;99.90;;;;;;5087194;28;20032;-73
2022/07/28 07:36:23;;;;;;;7.07;2.50;;;18.70;99.90;;;;;;5081490;28;20025;-74
2022/07/28 07:38:49;;;;;;;8.95;2.63;;;18.70;99.90;;;;;;5083745;28;20054;-73
2022/07/28 07:41:16;;;;;;;8.88;2.20;;;18.90;99.90;;;;;;5087462;28;20041;-73
2022/07/28 07:43:42;;;;;;;5.32;1.73;;;19.00;99.90;;;;;;5085000;28;20036;-73
2022/07/28 07:46:07;;;;;;;7.05;2.38;;;19.10;99.90;;;;;;5081946;28;20028;-73
2022/07/28 07:48:33;;;;;;;3.90;1.95;;;19.10;99.90;;;;;;5084464;28;20016;-73
2022/07/28 07:50:59;;;;;;;5.32;2.10;;;19.20;99.90;;;;;;5084776;28;20028;-73
2022/07/28 07:53:24;;;;;;;5.45;2.42;;;19.30;99.90;;;;;;5084653;28;20036;-73
2022/07/28 07:55:50;;;;;;;4.35;1.83;;;19.40;99.90;;;;;;5084674;28;20024;-73
2022/07/28 07:58:16;;;;;;;9.00;2.35;;;19.40;99.90;;;;;;5080392;28;20442;-74
2022/07/28 08:00:42;;;;;;;6.82;1.92;;;19.40;99.90;;;;;;5088269;28;20028;-73
2022/07/28 08:03:07;;;;;;;6.50;1.80;;;19.50;99.90;;;;;;5089263;28;20024;-73
2022/07/28 08:05:33;;;;;;;10.65;2.22;;;19.60;99.90;;;;;;5085211;28;20033;-73
2022/07/28 08:07:59;;;;;;;6.35;2.08;;;19.70;99.90;;;;;;5081093;28;20028;-72
2022/07/28 08:10:24;;;;;;;8.93;2.05;;;19.80;99.90;;;;;;5083716;28;20119;-73
2022/07/28 08:12:50;;;;;;;9.88;2.00;;;19.90;99.90;;;;;;5084559;28;20062;-72
2022/07/28 08:15:16;;;;;;;14.25;2.38;;;20.00;99.90;;;;;;5081963;28;20017;-73
2022/07/28 08:17:41;;;;;;;6.75;2.00;;;20.10;99.90;;;;;;5084594;28;20039;-74
2022/07/28 08:20:07;;;;;;;6.35;2.47;;;20.10;99.90;;;;;;5081261;28;20111;-75
2022/07/28 08:22:33;;;;;;;8.25;2.10;;;20.30;99.90;;;;;;5082240;28;20479;-74
2022/07/28 08:24:59;;;;;;;9.15;2.10;;;20.50;99.90;;;;;;5085852;28;20016;-73
2022/07/28 08:27:26;;;;;;;4.93;1.95;;;20.70;99.90;;;;;;5078432;28;20019;-73
2022/07/28 08:29:52;;;;;;;6.25;1.60;;;20.70;99.90;;;;;;5083546;28;20028;-73
2022/07/28 08:32:17;;;;;;;8.00;1.77;;;20.90;99.90;;;;;;5081065;28;20454;-73
2022/07/28 08:34:43;;;;;;;5.97;2.30;;;21.00;99.90;;;;;;5085635;28;20477;-72
2022/07/28 08:37:09;;;;;;;5.82;1.90;;;21.10;99.90;;;;;;5080733;28;20039;-73
2022/07/28 08:39:35;;;;;;;5.57;2.08;;;21.20;99.90;;;;;;5080460;28;20100;-73
2022/07/28 08:42:24;;;;;;;6.57;1.60;;;21.40;99.90;;;;;;5084116;28;20063;-72
2022/07/28 08:44:57;;;;;;;6.38;1.70;;;21.60;99.90;;;;;;5073521;28;20111;-73
2022/07/28 08:47:26;;;;;;;3.97;1.80;;;21.80;99.90;;;;;;5081751;28;20021;-72
2022/07/28 08:49:53;;;;;;;5.60;2.22;;;21.80;99.90;;;;;;5086103;28;20488;-72
2022/07/28 08:52:20;;;;;;;5.95;1.67;;;21.80;99.30;;;;;;5086767;28;20408;-71
2022/07/28 08:54:48;;;;;;;7.43;1.80;;;21.70;99.00;;;;;;5076684;28;20477;-72
2022/07/28 08:57:25;;;;;;;6.85;1.88;;;21.80;99.80;;;;;;5077067;28;20480;-72
2022/07/28 08:59:51;;;;;;;10.30;2.03;;;21.90;99.90;;;;;;5083119;28;20032;-71
2022/07/28 09:02:18;;;;;;;3.33;1.73;;;22.20;99.30;;;;;;5076863;28;20035;-73
2022/07/28 09:04:45;;;;;;;2.38;1.50;;;22.20;98.20;;;;;;5075634;28;20028;-71
2022/07/28 09:07:11;;;;;;;7.35;2.05;;;22.30;97.60;;;;;;5079095;28;20389;-73
2022/07/28 09:09:38;;;;;;;6.97;2.08;;;22.30;98.10;;;;;;5078945;28;20028;-71
2022/07/28 09:12:04;;;;;;;4.07;1.48;;;22.50;97.80;;;;;;5085261;28;20039;-72
2022/07/28 09:14:31;;;;;;;3.33;1.70;;;22.60;98.60;;;;;;5074071;28;20017;-72
2022/07/28 09:17:01;;;;;;;6.75;1.80;;;22.60;97.30;;;;;;5077403;28;20377;-72
2022/07/28 09:19:30;;;;;;;9.52;1.90;;;22.70;97.40;;;;;;5075222;28;20051;-73
2022/07/28 09:21:56;;;;;;;6.20;1.77;;;22.90;97.00;;;;;;5089083;28;20012;-72
2022/07/28 09:24:35;;;;;;;4.07;1.30;;;22.90;96.60;;;;;;5077020;28;20466;-72
2022/07/28 09:27:06;;;;;;;6.88;1.40;;;23.00;95.90;;;;;;5076099;28;20054;-73
2022/07/28 09:29:33;;;;;;;6.55;1.63;;;23.10;96.70;;;;;;5077703;28;20028;-72
2022/07/28 09:31:59;;;;;;;3.05;1.25;;;23.00;95.50;;;;;;5079641;28;20035;-73
2022/07/28 09:34:25;;;;;;;5.28;2.00;;;23.00;95.40;;;;;;5088794;28;20025;-72
2022/07/28 09:36:51;;;;;;;4.47;1.63;;;23.00;96.10;;;;;;5071660;28;20028;-72
2022/07/28 09:39:33;;;;;;;5.55;1.35;;;22.90;95.40;;;;;;5084594;28;20028;-73
2022/07/28 09:42:00;;;;;;;3.25;1.40;;;22.90;95.10;;;;;;5091860;28;20068;-73
2022/07/28 09:44:26;;;;;;;4.45;1.50;;;23.20;95.40;;;;;;5085463;28;20095;-73
2022/07/28 09:46:53;;;;;;;6.07;1.40;;;23.20;94.90;;;;;;5098190;28;20039;-72
2022/07/28 09:49:19;;;;;;;2.65;1.05;;;23.40;95.20;;;;;;5085003;28;20032;-72
2022/07/28 09:52:05;;;;;;;4.00;1.40;;;23.50;94.80;;;;;;5094030;28;20037;-72
2022/07/28 09:54:31;;;;;;;3.30;1.40;;;23.60;95.10;;;;;;5093483;28;20099;-72
2022/07/28 09:56:57;;;;;;;5.57;1.42;;;23.60;94.80;;;;;;5082724;28;20132;-73
2022/07/28 09:59:22;;;;;;;3.50;1.20;;;23.80;94.50;;;;;;5088679;28;20045;-73
2022/07/28 10:01:57;;;;;;;5.28;1.30;;;24.00;95.50;;;;;;5079392;28;20547;-73
2022/07/28 10:04:40;;;;;;;6.25;1.35;;;24.30;94.30;;;;;;5082330;28;20021;-72
2022/07/28 10:07:15;;;;;;;3.67;1.20;;;24.30;94.80;;;;;;5084098;28;20115;-72
2022/07/28 10:09:42;;;;;;;3.67;1.30;;;24.30;93.70;;;;;;5085391;28;20519;-73
2022/07/28 10:12:13;;;;;;;4.10;1.23;;;24.40;93.00;;;;;;5091191;28;20028;-72
2022/07/28 10:14:39;;;;;;;4.50;1.75;;;24.50;93.70;;;;;;5088005;28;20509;-72
2022/07/28 10:17:05;;;;;;;3.47;1.10;;;24.70;92.60;;;;;;5090865;28;20107;-73
2022/07/28 10:19:31;;;;;;;6.32;1.33;;;24.70;93.40;;;;;;5085702;28;20100;-72
2022/07/28 10:21:58;;;;;;;3.25;1.10;;;24.60;91.30;;;;;;5094887;28;20036;-73
2022/07/28 10:24:27;;;;;;;6.05;1.38;;;24.40;92.00;;;;;;5085146;28;20073;-72
2022/07/28 10:26:56;;;;;;;3.70;1.30;;;24.50;92.50;;;;;;5084561;28;20024;-72
2022/07/28 10:29:23;;;;;;;4.47;1.40;;;24.50;92.10;;;;;;5087119;28;20021;-72
2022/07/28 10:31:59;;;;;;;3.67;1.58;;;24.30;91.50;;;;;;5094749;28;20134;-72
2022/07/28 10:34:39;;;;;;;3.67;1.52;;;24.20;92.60;;;;;;5087417;28;20380;-73
2022/07/28 10:37:08;;;;;;;5.90;2.08;;;24.50;91.20;;;;;;5085949;28;20488;-72
2022/07/28 10:39:43;;;;;;;6.05;1.33;;;24.80;91.60;;;;;;5092521;28;20047;-73
2022/07/28 10:42:11;;;;;;;6.30;1.70;;;24.80;92.10;;;;;;5093765;28;20028;-72
2022/07/28 10:44:38;;;;;;;4.88;1.20;;;24.90;90.80;;;;;;5089306;28;20103;-73
2022/07/28 10:47:08;;;;;;;3.55;1.40;;;25.00;91.00;;;;;;5087513;28;20035;-73
2022/07/28 10:49:35;;;;;;;3.47;1.13;;;25.20;91.40;;;;;;5088335;28;20021;-73
2022/07/28 10:52:01;;;;;;;4.18;1.33;;;25.40;91.40;;;;;;5085885;28;20481;-73
2022/07/28 10:54:29;;;;;;;2.13;1.30;;;25.50;89.80;;;;;;5095382;28;20062;-74
2022/07/28 10:57:01;;;;;;;3.55;1.13;;;25.40;90.20;;;;;;5083803;28;20033;-72
2022/07/28 11:00:00;;;;;;;5.15;1.10;;;25.60;88.90;;;;;;5081988;28;20032;-73
2022/07/28 11:02:54;;;;;;;3.97;1.15;;;25.70;90.70;;;;;;5091849;28;20020;-73
2022/07/28 11:05:32;;;;;;;5.55;1.40;;;25.90;91.80;;;;;;5091768;28;20361;-69
2022/07/28 11:08:01;;;;;;;6.28;1.38;;;26.10;90.70;;;;;;5090898;28;20028;-72
2022/07/28 11:10:28;;;;;;;4.07;1.13;;;26.30;90.60;;;;;;5085473;27;20024;-72
2022/07/28 11:12:56;;;;;;;8.90;1.40;;;26.30;89.60;;;;;;5082756;28;20119;-72
2022/07/28 11:15:29;;;;;;;7.25;1.33;;;26.40;90.50;;;;;;5085591;28;20017;-72
2022/07/28 11:17:59;;;;;;;4.13;1.40;;;26.50;91.00;;;;;;5093368;28;20094;-72
2022/07/28 11:20:50;;;;;;;7.28;1.40;;;26.50;88.70;;;;;;5091880;28;20095;-72
2022/07/28 11:23:37;;;;;;;3.72;1.10;;;26.60;86.70;;;;;;5082152;28;20020;-73
2022/07/28 11:26:23;;;;;;;4.43;1.20;;;26.50;87.10;;;;;;5083254;28;20029;-72
2022/07/28 11:29:07;;;;;;;2.85;1.30;;;26.40;88.80;;;;;;5093542;28;20031;-73
2022/07/28 11:31:45;;;;;;;3.00;1.20;;;26.30;85.50;;;;;;5089980;28;20447;-72
2022/07/28 11:34:16;;;;;;;6.28;1.15;;;26.30;89.30;;;;;;5083571;28;20020;-72
2022/07/28 11:37:08;;;;;;;5.88;1.45;;;26.50;88.50;;;;;;5092337;28;20047;-74
2022/07/28 11:39:36;;;;;;;8.45;1.45;;;26.60;87.70;;;;;;5088098;28;20392;-74
2022/07/28 11:42:39;;;;;;;5.88;1.63;;;26.60;88.60;;;;;;5083745;28;20051;-73
2022/07/28 11:45:23;;;;;;;6.95;1.52;;;26.50;86.50;;;;;;5089088;28;20028;-73
2022/07/28 11:48:14;;;;;;;7.80;1.70;;;26.50;87.00;;;;;;5092061;28;20028;-73
2022/07/28 11:50:41;;;;;;;5.40;0.90;;;26.60;86.80;;;;;;5085568;28;20016;-74
2022/07/28 11:53:07;;;;;;;2.85;1.20;;;26.60;88.10;;;;;;5084176;28;20043;-73
2022/07/28 11:55:32;;;;;;;5.85;1.23;;;26.60;87.10;;;;;;5085364;28;20023;-73
2022/07/28 11:58:02;;;;;;;4.50;1.60;;;26.60;88.50;;;;;;5079554;28;20407;-73
2022/07/28 12:00:28;;;;;;;5.38;1.30;;;26.80;87.40;;;;;;5089480;28;20038;-74
2022/07/28 12:02:55;;;;;;;3.25;1.20;;;26.30;86.40;;;;;;5084436;28;20032;-73
2022/07/28 12:05:21;;;;;;;5.07;1.35;;;26.20;87.60;;;;;;5084519;28;20036;-73
2022/07/28 12:07:50;;;;;;;5.13;1.33;;;26.30;87.50;;;;;;5088305;28;20064;-73
2022/07/28 12:10:33;;;;;;;2.95;1.23;;;26.20;87.60;;;;;;5084317;28;20016;-73
2022/07/28 12:13:04;;;;;;;3.97;1.10;;;26.20;87.20;;;;;;5083589;28;20485;-72
2022/07/28 12:15:31;;;;;;;3.60;1.30;;;26.40;87.80;;;;;;5086190;28;20028;-73
2022/07/28 12:17:58;;;;;;;4.95;1.08;;;26.60;86.90;;;;;;5080364;28;20024;-71
2022/07/28 12:20:30;;;;;;;2.92;1.23;;;26.60;85.50;;;;;;5085475;28;20050;-72
2022/07/28 12:22:59;;;;;;;3.67;1.48;;;26.40;87.40;;;;;;5087899;28;20063;-74
2022/07/28 12:25:25;;;;;;;1.98;0.93;;;26.50;86.80;;;;;;5080918;28;20027;-74
2022/07/28 12:27:51;;;;;;;5.53;1.20;;;26.50;86.40;;;;;;5083619;28;20365;-74
2022/07/28 12:30:25;;;;;;;5.07;1.50;;;26.40;86.40;;;;;;5090420;28;20049;-74
2022/07/28 12:32:51;;;;;;;2.17;1.30;;;26.30;85.70;;;;;;5094396;28;20032;-74
2022/07/28 12:35:18;;;;;;;3.42;1.35;;;26.20;88.30;;;;;;5084337;28;20027;-74
2022/07/28 12:37:48;;;;;;;5.25;1.25;;;26.40;87.40;;;;;;5090584;28;20028;-74
2022/07/28 12:40:16;;;;;;;3.70;1.60;;;26.20;86.10;;;;;;5077172;28;20034;-74
2022/07/28 12:42:43;;;;;;;3.92;1.10;;;26.10;87.00;;;;;;5087015;28;20086;-74
2022/07/28 12:45:10;;;;;;;3.88;1.13;;;26.10;86.00;;;;;;5083246;28;20457;-74
2022/07/28 12:47:37;;;;;;;2.72;1.48;;;26.10;87.60;;;;;;5087455;28;20481;-73
2022/07/28 12:50:14;;;;;;;4.50;1.30;;;26.10;88.40;;;;;;5087248;28;20078;-73
2022/07/28 12:52:42;;;;;;;2.97;1.17;;;26.00;90.00;;;;;;5088581;28;20033;-73
2022/07/28 12:55:22;;;;;;;4.10;1.38;;;25.90;88.40;;;;;;5088982;28;20020;-73
2022/07/28 12:57:50;;;;;;;3.67;1.10;;;25.90;89.70;;;;;;5087698;28;20064;-73
2022/07/28 13:00:19;;;;;;;5.00;1.35;;;25.70;89.00;;;;;;5087696;28;20046;-73
2022/07/28 13:02:44;;;;;;;10.93;1.75;;;25.60;87.20;;;;;;5092584;28;20050;-73